• Join FlightAware (Why Join?)
  • Login
  • US Flag 
Rudolph Flight #1: Arrived! 
04:01AM EST


 

Airport Tracker/Info


-or-


 

Live Flight TrackerFlight Track Log ✈ CCA4393 ✈ 26-Oct-2013 ✈ ZUJZ / JZH - ZGGG / CAN

Flight Track Log - Related Links

Times and Time Zones

All times are in EDT time to prevent confusion due to time zone crossing. See the CCA4393 flight status page for this flight to view local times or setup timezone preferences in your user account.

Time Position Orientation Groundspeed Altitude Reporting Facility
EDT Latitude Longitude Course Direction KTS MPH feet Rate Location/Type
01:18AM 32.6294 103.9459 136° Southeast  Level Estimated
01:19AM 32.5534 104.0332 136° Southeast  Level Estimated
01:20AM 32.4773 104.1204 136° Southeast  Level Estimated
01:21AM 32.4012 104.2074 136° Southeast  Level Estimated
01:22AM 32.3250 104.2943 136° Southeast  Level Estimated
01:23AM 32.2488 104.3811 136° Southeast  Level Estimated
01:24AM 32.1725 104.4677 136° Southeast  Level Estimated
01:25AM 32.0961 104.5541 136° Southeast  Level Estimated
01:26AM 32.0197 104.6404 136° Southeast  Level Estimated
01:27AM 31.9432 104.7266 136° Southeast  Level Estimated
01:28AM 31.8667 104.8126 136° Southeast  Level Estimated
01:28AM 32.5610 104.1530 136° Southeast 449 517 24,600  Level FlightAware
01:28AM 32.5110 104.1930 146° Southeast 447 514 24,700 1,260 Climbing FlightAware
01:29AM 31.7901 104.8985 136° Southeast  Level Estimated
01:29AM 32.3840 104.2580 157° South 438 504 26,600  Level FlightAware
01:30AM 32.3170 104.2640 176° South 434 499 27,800 1,740 Climbing FlightAware
01:30AM 32.2440 104.2660 179° South 442 509 28,600 1,020 Climbing FlightAware
01:31AM 32.1380 104.2710 178° South 453 521 29,300 1,200 Climbing FlightAware
01:32AM 32.0680 104.2750 177° South 454 522 30,300 1,560 Climbing FlightAware
01:32AM 32.0120 104.2780 177° South 460 529 30,900 1,740 Climbing FlightAware
01:33AM 31.9250 104.2820 178° South 457 526 32,300 1,260 Climbing FlightAware
01:34AM 31.7910 104.2880 178° South 452 520 33,100 480 Climbing FlightAware
01:34AM 31.7300 104.2910 178° South 457 526 33,100  Level FlightAware
01:35AM 31.6470 104.2950 178° South 456 525 33,100  Level FlightAware
01:36AM 31.5720 104.2990 177° South 457 526 33,100  Level FlightAware
01:36AM 31.4860 104.3040 177° South 457 526 33,100  Level FlightAware
01:37AM 31.3780 104.3090 178° South 456 525 33,100  Level FlightAware
01:38AM 31.3270 104.3120 177° South 455 524 33,100  Level FlightAware
01:38AM 31.2460 104.3160 178° South 454 522 33,100  Level FlightAware
01:39AM 31.1720 104.3190 178° South 452 520 33,100  Level FlightAware
01:39AM 31.0970 104.3230 177° South 452 520 33,100  Level FlightAware
01:40AM 31.0200 104.3260 178° South 453 521 33,100  Level FlightAware
01:41AM 30.8950 104.3340 177° South 456 525 33,100 60 Level FlightAware
01:42AM 30.8210 104.3500 169° South 463 533 33,200  Climbing FlightAware
01:42AM 30.7360 104.3810 163° South 465 535 33,100 -60 Descending FlightAware
01:43AM 30.6060 104.4310 162° South 464 534 33,100  Level FlightAware
01:44AM 30.5430 104.4550 162° South 463 533 33,100  Level FlightAware
01:45AM 30.4660 104.4850 161° South 463 533 33,100  Level FlightAware
01:45AM 30.3920 104.5130 162° South 465 535 33,100  Level FlightAware
01:46AM 30.2790 104.5560 162° South 472 543 33,100  Level FlightAware
01:47AM 30.2030 104.5840 162° South 478 550 33,100 60 Level FlightAware
01:47AM 30.1260 104.6130 162° South 480 552 33,200 60 Climbing FlightAware
01:48AM 29.9920 104.6650 161° South 483 556 33,200  Level FlightAware
01:49AM 29.9320 104.6890 161° South 482 555 33,200  Level FlightAware
01:49AM 29.8860 104.7070 161° South 482 555 33,200  Level FlightAware
01:50AM 29.8160 104.7350 161° South 482 555 33,200  Level FlightAware
01:50AM 29.7510 104.7610 161° South 482 555 33,200  Level FlightAware
01:51AM 29.6870 104.7860 161° South 482 555 33,200  Level FlightAware
01:52AM 29.6220 104.8120 161° South 482 555 33,200  Level FlightAware
01:52AM 29.5560 104.8380 161° South 482 555 33,200  Level FlightAware
01:53AM 29.4900 104.8640 161° South 482 555 33,200  Level FlightAware
01:53AM 29.4250 104.8900 161° South 482 555 33,200  Level FlightAware
01:54AM 29.3610 104.9150 161° South 482 555 33,200  Level FlightAware
01:55AM 29.2960 104.9410 161° South 482 555 33,200  Level FlightAware
01:55AM 29.2310 104.9660 161° South 482 555 33,200  Level FlightAware
01:56AM 29.1670 104.9920 160° South 482 555 33,200  Level FlightAware
01:56AM 29.1020 105.0170 161° South 482 555 33,200 -60 Level FlightAware
01:58AM 28.8060 105.1240 162° South 490 564 33,100 -60 Descending FlightAware
01:58AM 28.7360 105.1500 162° South 490 564 33,100  Level FlightAware
01:59AM 28.6640 105.1780 161° South 490 564 33,100  Level FlightAware
01:59AM 28.5980 105.2040 161° South 490 564 33,100  Level FlightAware
02:00AM 28.5550 105.2210 161° South 490 564 33,100  Level FlightAware
02:01AM 28.4670 105.2550 161° South 490 564 33,100  Level FlightAware
02:02AM 28.3560 105.2990 161° South 490 564 33,100  Level FlightAware
02:02AM 28.2690 105.3330 161° South 490 564 33,100  Level FlightAware
02:03AM 28.2030 105.3580 162° South 490 564 33,100  Level FlightAware
02:04AM 28.0900 105.4030 161° South 490 564 33,100  Level FlightAware
02:05AM 28.0250 105.4280 161° South 490 564 33,100  Level FlightAware
02:05AM 27.9570 105.4540 161° South 490 564 33,100  Level FlightAware
02:06AM 27.8920 105.4800 161° South 490 564 33,100  Level FlightAware
02:06AM 27.8240 105.5060 161° South 490 564 33,100  Level FlightAware
02:07AM 27.7590 105.5320 161° South 490 564 33,100  Level FlightAware
02:08AM 27.6910 105.5580 161° South 490 564 33,100  Level FlightAware
02:08AM 27.6260 105.5830 161° South 490 564 33,100 -60 Level FlightAware
02:11AM 27.5100 105.8129 120° Southeast  Level Estimated
02:12AM 27.4576 105.9165 120° Southeast  Level Estimated
02:13AM 27.4051 106.0199 120° Southeast  Level Estimated
02:14AM 27.3525 106.1233 120° Southeast  Level Estimated
02:15AM 27.2998 106.2265 120° Southeast  Level Estimated
02:16AM 27.2471 106.3297 120° Southeast  Level Estimated
02:17AM 27.1942 106.4328 120° Southeast  Level Estimated
02:18AM 27.1413 106.5357 120° Southeast  Level Estimated
02:19AM 27.0884 106.6386 120° Southeast  Level Estimated
02:20AM 27.0353 106.7414 120° Southeast  Level Estimated
02:21AM 26.9822 106.8440 120° Southeast  Level Estimated
02:22AM 26.9290 106.9466 120° Southeast  Level Estimated
02:23AM 26.8757 107.0491 120° Southeast  Level Estimated
02:24AM 26.8224 107.1515 120° Southeast  Level Estimated
02:25AM 26.7690 107.2538 120° Southeast  Level Estimated
02:26AM 26.7155 107.3560 120° Southeast  Level Estimated
02:27AM 26.6619 107.4581 120° Southeast  Level Estimated
02:28AM 26.6083 107.5601 120° Southeast  Level Estimated
02:29AM 26.5546 107.6620 120° Southeast  Level Estimated
02:30AM 26.5008 107.7638 121° Southeast  Level Estimated
02:31AM 26.4469 107.8655 121° Southeast  Level Estimated
02:32AM 26.3930 107.9671 121° Southeast  Level Estimated
02:33AM 26.3390 108.0686 121° Southeast  Level Estimated
02:34AM 26.2849 108.1701 121° Southeast  Level Estimated
02:35AM 26.2308 108.2714 121° Southeast  Level Estimated
02:36AM 26.1766 108.3726 121° Southeast  Level Estimated
02:37AM 26.1223 108.4738 121° Southeast  Level Estimated
02:38AM 26.0680 108.5748 121° Southeast  Level Estimated
02:39AM 26.0135 108.6758 121° Southeast  Level Estimated
02:40AM 25.9590 108.7766 121° Southeast  Level Estimated
02:41AM 25.9045 108.8774 121° Southeast  Level Estimated
02:42AM 25.8499 108.9781 121° Southeast  Level Estimated
02:43AM 25.7952 109.0787 121° Southeast  Level Estimated
02:44AM 25.7404 109.1792 121° Southeast  Level Estimated
02:45AM 25.6856 109.2796 121° Southeast  Level Estimated
02:46AM 25.6306 109.3799 121° Southeast  Level Estimated
02:47AM 25.5757 109.4801 121° Southeast  Level Estimated
02:48AM 25.5206 109.5802 121° Southeast  Level Estimated
02:48AM 24.3960 110.9830 121° Southeast 516 594 31,100  Level FlightAware
02:49AM 24.3290 111.0860 126° Southeast 519 597 31,100  Level FlightAware
02:49AM 24.2910 111.1460 125° Southeast 519 597 31,100  Level FlightAware
02:50AM 24.2490 111.2120 125° Southeast 519 597 31,100  Level FlightAware
02:50AM 24.1860 111.2940 130° Southeast 515 593 31,100  Level FlightAware
02:51AM 24.1440 111.3400 135° Southeast 514 592 31,100 -720 Level FlightAware
02:52AM 24.0610 111.4300 135° Southeast 519 597 30,200 -1,320 Descending FlightAware
02:52AM 23.9850 111.5130 135° Southeast 510 587 29,100 -1,560 Descending FlightAware
02:53AM 23.9230 111.5740 138° Southeast 492 566 28,200 -1,500 Descending FlightAware
02:54AM 23.8540 111.6060 157° South 454 522 27,300 -1,560 Descending FlightAware
02:54AM 23.7740 111.6210 170° South 442 509 26,300 -1,500 Descending FlightAware
02:55AM 23.7040 111.6330 171° South 435 501 25,500 -960 Descending FlightAware
02:55AM 23.6330 111.6470 170° South 431 496 25,100 -1,560 Descending FlightAware
02:56AM 23.5110 111.6650 172° South 416 479 23,000 -1,920 Descending FlightAware
02:57AM 23.4240 111.6800 171° South 397 457 21,800 -1,500 Descending FlightAware
02:58AM 23.3510 111.6780 181° South 362 417 20,800 -1,260 Descending FlightAware
02:58AM 23.2960 111.6660 191° South 345 397 20,200 -900 Descending FlightAware
02:59AM 23.2500 111.6550 192° South 324 373 19,800 -960 Descending FlightAware
03:00AM 23.1910 111.6410 192° South 308 354 19,100 -1,380 Descending FlightAware
03:00AM 23.1400 111.6280 193° South 305 351 18,100 -1,500 Descending FlightAware
03:01AM 23.1010 111.6200 191° South 307 353 17,500 -600 Descending FlightAware
03:01AM 23.0550 111.6190 181° South 307 353 17,500  Level FlightAware
03:02AM 23.0120 111.6180 181° South 307 353 17,500 -1,980 Level FlightAware
03:02AM 23.0340 111.7430 79° East 336 387 15,400 -2,640 Descending FlightAware
03:03AM 23.0370 111.8010 87° East 334 384 14,800 -600 Descending FlightAware
03:03AM 23.0390 111.8410 87° East 334 384 14,800  Level FlightAware
03:04AM 23.0420 111.8750 85° East 334 384 14,800 -1,320 Level FlightAware
03:05AM 23.0450 111.9760 88° East 342 394 13,200 -1,500 Descending FlightAware
03:05AM 23.0480 112.0320 87° East 336 387 12,700 -1,020 Descending FlightAware
03:06AM 23.0530 112.1250 87° East 325 374 11,700 -1,020 Descending FlightAware
03:07AM 23.0580 112.2260 87° East 319 367 10,800 -540 Descending FlightAware
03:08AM 23.0610 112.2940 87° East 322 371 10,800 -360 Level FlightAware
03:08AM 23.0640 112.3470 86° East 311 358 10,400 -780 Descending FlightAware
03:09AM 23.0670 112.4170 87° East 291 335 9,800 -780 Descending FlightAware
03:10AM 23.0690 112.4640 87° East 289 333 9,400 -720 Descending FlightAware
03:10AM 23.0700 112.4890 88° East 289 333 9,200 -840 Descending FlightAware
03:11AM 23.0700 112.5350 90° East 288 331 8,700 -840 Descending FlightAware
03:11AM 23.0700 112.5850 90° East 284 327 8,300 -660 Descending FlightAware
03:12AM 23.0700 112.6620 90° East 287 330 7,800 -360 Descending FlightAware
03:13AM 23.0690 112.7120 91° East 286 329 7,800 -300 Level FlightAware
03:13AM 23.0690 112.7640 90° East 280 322 7,500 -540 Descending FlightAware
03:14AM 23.0690 112.8100 90° East 276 318 7,200 -480 Descending FlightAware
03:14AM 23.0680 112.8530 91° East 272 313 7,000 -480 Descending FlightAware
03:15AM 23.0680 112.8970 90° East 269 310 6,700 -540 Descending FlightAware
03:15AM 23.0680 112.9450 90° East 265 305 6,400 -480 Descending FlightAware
03:16AM 23.0670 113.0010 91° East 270 311 6,100 -480 Descending FlightAware
03:17AM 23.0670 113.0480 90° East 267 307 5,800 -600 Descending FlightAware
03:17AM 23.0670 113.0740 90° East 253 291 5,600 -540 Descending FlightAware
03:18AM 23.0850 113.1320 71° East 219 252 5,200 -600 Descending FlightAware
03:19AM 23.1030 113.1630 58° Northeast 201 231 4,800 -720 Descending FlightAware
03:19AM 23.1240 113.1890 49° Northeast 194 223 4,400 -660 Descending FlightAware
03:20AM 23.1410 113.2100 49° Northeast 192 221 4,100 -720 Descending FlightAware
03:20AM 23.1650 113.2260 32° Northeast 183 211 3,700 -780 Descending FlightAware
03:21AM 23.1950 113.2350 15° North 173 199 3,200 -660 Descending FlightAware
03:21AM 23.2230 113.2420 13° North 174 200 2,900 -660 Descending FlightAware
03:22AM 23.2450 113.2480 14° North 177 204 2,500 -1,020 Descending FlightAware
03:22AM 23.2680 113.2540 13° North 169 194 2,000 -900 Descending FlightAware
03:23AM 23.2920 113.2610 15° North 140 161 1,600 -720 Descending FlightAware
03:23AM 23.3120 113.2660 13° North 127 146 1,200 -600 Descending FlightAware
03:24AM 23.3190 113.2680 15° North 127 146 1,100 -180 Descending FlightAware
03:24AM 23.3330 113.2720 15° North 127 146 1,100  Level FlightAware
03:27AM 23.3924 113.2988 22° Northeast  Level Estimated